createdAt,value
2019-05-23T00:00:54.432Z,11.30
2019-05-23T00:03:46.055Z,11.12
2019-05-23T00:06:36.353Z,11.45
2019-05-23T00:09:25.707Z,11.60
2019-05-23T00:12:15.518Z,11.63
2019-05-23T00:15:01.117Z,10.95
2019-05-23T00:17:35.351Z,10.25
2019-05-23T00:20:10.390Z,10.48
2019-05-23T00:22:41.994Z,10.40
2019-05-23T00:25:15.673Z,9.83
2019-05-23T00:27:47.446Z,10.08
2019-05-23T00:30:23.949Z,9.93
2019-05-23T00:32:59.883Z,10.82
2019-05-23T00:35:32.353Z,11.10
2019-05-23T00:38:04.582Z,9.93
2019-05-23T00:40:36.665Z,10.38
2019-05-23T00:43:08.307Z,10.13
2019-05-23T00:45:40.789Z,9.85
2019-05-23T00:48:13.755Z,9.00
2019-05-23T00:50:46.197Z,9.63
2019-05-23T00:53:17.468Z,9.83
2019-05-23T00:55:49.350Z,11.00
2019-05-23T00:58:20.970Z,9.60
2019-05-23T01:00:52.654Z,9.23
2019-05-23T01:03:25.447Z,9.83
2019-05-23T01:05:56.896Z,9.40
2019-05-23T01:08:31.163Z,9.80
2019-05-23T01:11:04.008Z,9.13
2019-05-23T01:13:35.822Z,9.45
2019-05-23T01:16:07.914Z,8.83
2019-05-23T01:18:40.317Z,9.50
2019-05-23T01:21:13.742Z,9.53
2019-05-23T01:23:56.869Z,9.25
2019-05-23T01:26:29.151Z,9.08
2019-05-23T01:29:02.175Z,9.05
2019-05-23T01:31:45.458Z,9.15
2019-05-23T01:34:16.941Z,8.73
2019-05-23T01:36:49.030Z,9.58
2019-05-23T01:39:20.629Z,8.58
2019-05-23T01:41:54.243Z,8.75
2019-05-23T01:44:26.652Z,8.50
2019-05-23T01:47:00.356Z,8.38
2019-05-23T01:49:32.380Z,8.85
2019-05-23T01:52:05.568Z,8.58
2019-05-23T01:54:37.203Z,8.70
2019-05-23T01:57:10.467Z,8.48
2019-05-23T01:59:43.047Z,9.08
2019-05-23T02:02:16.352Z,8.25
2019-05-23T02:04:48.715Z,8.53
2019-05-23T02:07:21.019Z,8.90
2019-05-23T02:09:52.416Z,8.23
2019-05-23T02:12:23.725Z,8.13
2019-05-23T02:14:56.108Z,8.58
2019-05-23T02:17:28.846Z,9.48
2019-05-23T02:20:01.878Z,8.90
2019-05-23T02:22:33.514Z,8.38
2019-05-23T02:25:08.207Z,10.03
2019-05-23T02:27:40.887Z,8.90
2019-05-23T02:30:33.138Z,9.08
2019-05-23T02:32:50.469Z,10.03
2019-05-23T02:35:22.951Z,10.48
2019-05-23T02:38:14.265Z,10.03
2019-05-23T02:40:47.249Z,9.58
2019-05-23T02:43:21.836Z,9.68
2019-05-23T02:46:13.063Z,9.20
2019-05-23T02:48:46.044Z,10.03
2019-05-23T02:51:37.225Z,11.15
2019-05-23T02:54:12.253Z,11.20
2019-05-23T02:56:46.328Z,11.10
2019-05-23T02:59:41.417Z,10.15
2019-05-23T03:02:46.438Z,10.18
2019-05-23T03:05:22.974Z,10.65
2019-05-23T03:07:56.616Z,10.25
2019-05-23T03:10:28.821Z,9.75
2019-05-23T03:13:02.024Z,9.25
2019-05-23T03:15:34.166Z,10.72
2019-05-23T03:18:08.798Z,10.13
2019-05-23T03:20:41.103Z,9.58
2019-05-23T03:23:16.874Z,9.33
2019-05-23T03:26:03.477Z,9.80
2019-05-23T03:28:42.816Z,9.63
2019-05-23T03:31:30.692Z,10.48
2019-05-23T03:33:59.727Z,10.70
2019-05-23T03:36:31.502Z,19.75
2019-05-23T03:39:02.887Z,11.38
2019-05-23T03:41:34.496Z,10.68
2019-05-23T03:44:07.447Z,10.40
2019-05-23T03:46:40.632Z,10.82
2019-05-23T03:49:11.940Z,9.98
2019-05-23T03:51:43.424Z,10.93
2019-05-23T03:54:15.262Z,9.50
2019-05-23T03:56:47.313Z,9.35
2019-05-23T03:59:20.054Z,10.13
2019-05-23T04:01:51.959Z,9.23
2019-05-23T04:04:26.877Z,12.45
2019-05-23T04:06:59.320Z,13.50
2019-05-23T04:09:31.146Z,12.63
2019-05-23T04:12:03.165Z,10.85
2019-05-23T04:14:34.534Z,10.03
2019-05-23T04:17:06.738Z,9.98
2019-05-23T04:19:38.443Z,9.90
2019-05-23T04:22:10.384Z,10.40
2019-05-23T04:24:42.460Z,10.53
2019-05-23T04:27:14.407Z,11.00
2019-05-23T04:29:45.921Z,10.68
2019-05-23T04:32:17.872Z,11.78
2019-05-23T04:34:50.168Z,12.90
2019-05-23T04:37:22.074Z,12.45
2019-05-23T04:39:54.379Z,12.73
2019-05-23T04:42:26.215Z,11.85
2019-05-23T04:44:57.636Z,61.05
2019-05-23T04:47:29.245Z,14.10
2019-05-23T04:50:00.903Z,13.08
2019-05-23T04:52:32.858Z,13.38
2019-05-23T04:55:04.928Z,12.53
2019-05-23T04:57:36.733Z,12.35
2019-05-23T05:00:13.412Z,11.90
2019-05-23T05:02:46.002Z,12.90
2019-05-23T05:05:18.303Z,12.45
2019-05-23T05:07:49.735Z,12.47
2019-05-23T05:10:23.907Z,12.95
2019-05-23T05:12:56.138Z,12.58
2019-05-23T05:15:27.989Z,12.55
2019-05-23T05:18:00.210Z,12.47
2019-05-23T05:20:31.983Z,12.75
2019-05-23T05:23:04.339Z,11.85
2019-05-23T05:25:37.186Z,13.68
2019-05-23T05:28:08.586Z,14.20
2019-05-23T05:30:40.554Z,14.65
2019-05-23T05:33:12.580Z,14.75
2019-05-23T05:35:44.324Z,15.40
2019-05-23T05:38:16.858Z,16.62
2019-05-23T05:40:48.248Z,15.00
2019-05-23T05:43:20.562Z,14.53
2019-05-23T05:45:52.212Z,15.83
2019-05-23T05:48:23.751Z,15.03
2019-05-23T05:50:55.441Z,16.32
2019-05-23T05:53:27.153Z,16.20
2019-05-23T05:55:58.518Z,19.05
2019-05-23T05:58:30.255Z,17.62
2019-05-23T06:01:04.019Z,18.02
2019-05-23T06:03:35.832Z,17.80
2019-05-23T06:06:18.394Z,16.65
2019-05-23T06:08:52.418Z,17.95
2019-05-23T06:11:24.237Z,16.82
2019-05-23T06:13:55.829Z,16.15
2019-05-23T06:16:27.942Z,15.08
2019-05-23T06:18:59.872Z,15.18
2019-05-23T06:21:31.400Z,16.15
2019-05-23T06:24:02.944Z,15.23
2019-05-23T06:26:34.325Z,16.02
2019-05-23T06:29:07.462Z,16.73
2019-05-23T06:31:40.641Z,17.25
2019-05-23T06:34:12.994Z,16.07
2019-05-23T06:36:44.964Z,15.75
2019-05-23T06:39:18.464Z,16.17
2019-05-23T06:41:49.952Z,15.90
2019-05-23T06:44:21.676Z,16.55
2019-05-23T06:46:53.023Z,16.25
2019-05-23T06:49:24.478Z,17.57
2019-05-23T06:51:55.817Z,18.02
2019-05-23T06:54:27.369Z,16.55
2019-05-23T06:56:58.882Z,18.05
2019-05-23T06:59:30.293Z,17.80
2019-05-23T07:02:02.335Z,18.32
2019-05-23T07:04:33.865Z,17.77
2019-05-23T07:07:06.708Z,17.48
2019-05-23T07:09:38.211Z,16.87
2019-05-23T07:12:10.368Z,17.20
2019-05-23T07:14:41.784Z,17.82
2019-05-23T07:17:13.549Z,18.07
2019-05-23T07:19:45.040Z,16.85
2019-05-23T07:22:18.869Z,17.12
2019-05-23T07:24:57.956Z,18.02
2019-05-23T07:27:25.681Z,17.55
2019-05-23T07:29:57.211Z,17.87
2019-05-23T07:32:28.605Z,18.35
2019-05-23T07:34:59.965Z,17.27
2019-05-23T07:37:31.425Z,17.12
2019-05-23T07:40:02.948Z,17.23
2019-05-23T07:42:35.438Z,16.57
2019-05-23T07:45:09.661Z,17.50
2019-05-23T07:47:41.694Z,17.50
2019-05-23T07:50:14.525Z,17.25
2019-05-23T07:52:46.024Z,16.90
2019-05-23T07:55:20.538Z,16.48
2019-05-23T07:57:52.547Z,15.15
2019-05-23T08:00:35.564Z,15.50
2019-05-23T08:03:09.133Z,38.23
2019-05-23T08:05:40.541Z,14.58
2019-05-23T08:08:12.610Z,14.83
2019-05-23T08:10:46.429Z,16.17
2019-05-23T08:13:18.146Z,16.55
2019-05-23T08:15:50.041Z,14.95
2019-05-23T08:18:21.905Z,15.30
2019-05-23T08:20:53.326Z,15.60
2019-05-23T08:23:25.174Z,15.75
2019-05-23T08:26:02.321Z,16.32
2019-05-23T08:28:34.877Z,16.40
2019-05-23T08:31:08.065Z,16.65
2019-05-23T08:33:40.217Z,16.50
2019-05-23T08:36:12.190Z,16.73
2019-05-23T08:38:43.849Z,13.68
2019-05-23T08:41:15.435Z,15.53
2019-05-23T08:43:47.717Z,15.83
2019-05-23T08:46:20.773Z,14.00
2019-05-23T08:48:52.535Z,14.63
2019-05-23T08:51:23.978Z,13.65
2019-05-23T08:53:55.770Z,14.53
2019-05-23T08:56:27.471Z,14.03
2019-05-23T08:58:58.905Z,12.45
2019-05-23T09:01:30.424Z,12.88
2019-05-23T09:04:04.057Z,13.30
2019-05-23T09:06:35.909Z,11.65
2019-05-23T09:09:28.518Z,12.05
2019-05-23T09:11:44.495Z,12.25
2019-05-23T09:14:16.140Z,11.43
2019-05-23T09:16:47.597Z,11.90
2019-05-23T09:19:19.296Z,10.78
2019-05-23T09:21:57.503Z,10.70
2019-05-23T09:24:24.121Z,10.58
2019-05-23T09:26:55.521Z,11.45
2019-05-23T09:29:27.941Z,9.93
2019-05-23T09:31:59.890Z,9.15
2019-05-23T09:34:31.397Z,10.10
2019-05-23T09:37:03.761Z,9.90
2019-05-23T09:39:36.898Z,10.10
2019-05-23T09:42:11.921Z,10.23
2019-05-23T09:44:41.657Z,10.38
2019-05-23T09:47:13.188Z,21.62
2019-05-23T09:49:53.734Z,10.35
2019-05-23T09:52:19.743Z,10.35
2019-05-23T09:54:51.180Z,13.80
2019-05-23T09:57:23.139Z,12.05
2019-05-23T09:59:57.038Z,9.50
2019-05-23T10:02:28.739Z,8.78
2019-05-23T10:05:13.227Z,10.03
2019-05-23T10:07:44.915Z,9.05
2019-05-23T10:10:17.955Z,8.90
2019-05-23T10:12:49.461Z,8.60
2019-05-23T10:15:35.564Z,8.60
2019-05-23T10:18:08.882Z,8.40
2019-05-23T10:20:41.332Z,8.00
2019-05-23T10:23:12.887Z,7.70
2019-05-23T10:25:44.856Z,8.73
2019-05-23T10:28:16.826Z,7.92
2019-05-23T10:30:48.350Z,6.67
2019-05-23T10:33:20.113Z,7.83
2019-05-23T10:36:00.375Z,7.00
2019-05-23T10:38:24.779Z,7.92
2019-05-23T10:40:56.356Z,7.67
2019-05-23T10:43:27.803Z,7.33
2019-05-23T10:45:59.299Z,8.55
2019-05-23T10:48:31.173Z,8.70
2019-05-23T10:51:02.454Z,9.40
2019-05-23T10:53:33.786Z,8.78
2019-05-23T10:56:05.448Z,8.85
2019-05-23T10:58:37.127Z,9.95
2019-05-23T11:01:09.227Z,10.25
2019-05-23T11:03:40.895Z,8.95
2019-05-23T11:06:16.460Z,8.83
2019-05-23T11:08:46.595Z,9.80
2019-05-23T11:11:18.001Z,8.65
2019-05-23T11:13:49.615Z,9.68
2019-05-23T11:16:21.133Z,9.58
2019-05-23T11:18:53.821Z,10.00
2019-05-23T11:21:25.553Z,9.05
2019-05-23T11:23:57.158Z,9.25
2019-05-23T11:26:29.169Z,9.68
2019-05-23T11:29:00.417Z,8.40
2019-05-23T11:31:32.258Z,9.45
2019-05-23T11:34:03.788Z,10.48
2019-05-23T11:36:36.897Z,11.45
2019-05-23T11:39:10.780Z,9.50
2019-05-23T11:41:42.406Z,9.03
2019-05-23T11:44:13.804Z,8.93
2019-05-23T11:46:45.960Z,8.55
2019-05-23T11:49:17.804Z,7.25
2019-05-23T11:51:50.515Z,8.35
2019-05-23T11:54:22.266Z,8.15
2019-05-23T11:56:56.173Z,8.75
2019-05-23T11:59:28.439Z,8.35
2019-05-23T12:02:03.002Z,7.83
2019-05-23T12:04:36.237Z,7.97
2019-05-23T12:07:09.412Z,8.95
2019-05-23T12:09:40.936Z,8.03
2019-05-23T12:12:12.390Z,8.25
2019-05-23T12:14:43.992Z,8.20
2019-05-23T12:17:17.061Z,7.72
2019-05-23T12:19:48.960Z,7.97
2019-05-23T12:22:20.568Z,9.03
2019-05-23T12:24:51.955Z,8.13
2019-05-23T12:27:23.502Z,8.75
2019-05-23T12:30:08.160Z,7.30
2019-05-23T12:32:39.665Z,5.28
2019-05-23T12:35:12.117Z,7.15
2019-05-23T12:37:43.843Z,6.62
2019-05-23T12:40:21.420Z,7.22
2019-05-23T12:42:52.783Z,6.62
2019-05-23T12:45:24.601Z,5.15
2019-05-23T12:48:00.329Z,7.53
2019-05-23T12:50:47.552Z,5.72
2019-05-23T12:53:19.697Z,6.37
2019-05-23T12:55:51.046Z,5.72
2019-05-23T12:58:23.000Z,4.95
2019-05-23T13:00:56.097Z,6.03
2019-05-23T13:03:35.157Z,6.05
2019-05-23T13:06:07.689Z,4.65
2019-05-23T13:08:39.029Z,5.03
2019-05-23T13:11:10.563Z,4.85
2019-05-23T13:13:42.085Z,5.65
2019-05-23T13:16:17.687Z,6.20
2019-05-23T13:18:58.429Z,5.80
2019-05-23T13:21:25.943Z,5.45
2019-05-23T13:23:57.418Z,5.15
2019-05-23T13:26:29.144Z,5.58
2019-05-23T13:29:00.640Z,4.65
2019-05-23T13:31:32.155Z,5.05
2019-05-23T13:34:03.628Z,5.15
2019-05-23T13:36:35.352Z,4.30
2019-05-23T13:39:09.980Z,4.40
2019-05-23T13:41:41.645Z,3.80
2019-05-23T13:44:32.046Z,5.87
2019-05-23T13:46:46.774Z,5.65
2019-05-23T13:49:18.612Z,4.97
2019-05-23T13:51:50.497Z,5.22
2019-05-23T13:54:22.140Z,5.17
2019-05-23T13:56:54.692Z,5.12
2019-05-23T13:59:26.254Z,5.53
2019-05-23T14:01:58.796Z,5.60
2019-05-23T14:04:30.373Z,4.75
2019-05-23T14:07:01.913Z,5.28
2019-05-23T14:09:34.660Z,7.90
2019-05-23T14:12:20.523Z,4.62
2019-05-23T14:14:39.895Z,5.03
2019-05-23T14:17:19.150Z,4.78
2019-05-23T14:19:52.433Z,5.25
2019-05-23T14:22:26.291Z,4.97
2019-05-23T14:24:58.195Z,4.72
2019-05-23T14:27:47.621Z,5.25
2019-05-23T14:30:36.111Z,4.83
2019-05-23T14:33:12.971Z,5.62
2019-05-23T14:35:46.050Z,5.70
2019-05-23T14:38:30.102Z,5.60
2019-05-23T14:40:52.591Z,5.83
2019-05-23T14:43:27.710Z,6.20
2019-05-23T14:46:09.481Z,6.90
2019-05-23T14:48:45.920Z,6.22
2019-05-23T14:51:19.169Z,5.70
2019-05-23T14:53:56.017Z,5.70
2019-05-23T14:56:29.454Z,5.45
2019-05-23T14:59:00.899Z,5.65
2019-05-23T15:01:35.556Z,6.33
2019-05-23T15:04:08.823Z,5.22
2019-05-23T15:06:48.803Z,5.67
2019-05-23T15:09:21.451Z,5.30
2019-05-23T15:11:54.148Z,5.40
2019-05-23T15:14:27.004Z,5.58
2019-05-23T15:17:06.396Z,5.00
2019-05-23T15:19:44.732Z,4.67
2019-05-23T15:22:11.554Z,4.72
2019-05-23T15:24:47.944Z,5.00
2019-05-23T15:27:33.199Z,5.28
2019-05-23T15:30:11.544Z,5.10
2019-05-23T15:32:50.576Z,5.50
2019-05-23T15:35:32.910Z,4.80
2019-05-23T15:38:10.194Z,5.25
2019-05-23T15:40:43.486Z,4.67
2019-05-23T15:43:19.884Z,4.75
2019-05-23T15:45:51.226Z,5.40
2019-05-23T15:48:22.734Z,4.95
2019-05-23T15:50:54.172Z,4.87
2019-05-23T15:53:30.094Z,4.90
2019-05-23T15:56:27.280Z,5.03
2019-05-23T15:58:53.036Z,4.62
2019-05-23T16:01:27.870Z,5.05
2019-05-23T16:04:04.385Z,5.05
2019-05-23T16:06:36.634Z,5.40
2019-05-23T16:09:27.795Z,5.33
2019-05-23T16:11:46.319Z,5.35
2019-05-23T16:14:23.904Z,4.70
2019-05-23T16:16:57.411Z,4.75
2019-05-23T16:19:28.793Z,4.42
2019-05-23T16:22:00.354Z,4.12
2019-05-23T16:24:32.222Z,3.95
2019-05-23T16:27:03.754Z,4.25
2019-05-23T16:29:35.841Z,4.60
2019-05-23T16:32:07.288Z,4.40
2019-05-23T16:34:39.113Z,5.17
2019-05-23T16:37:10.623Z,4.83
2019-05-23T16:39:47.136Z,4.95
2019-05-23T16:42:16.205Z,4.95
2019-05-23T16:44:48.675Z,4.85
2019-05-23T16:47:21.402Z,4.10
2019-05-23T16:49:52.838Z,4.37
2019-05-23T16:52:24.315Z,10.60
2019-05-23T16:54:57.628Z,6.45
2019-05-23T16:57:30.704Z,4.72
2019-05-23T17:00:21.069Z,4.58
2019-05-23T17:03:00.521Z,4.05
2019-05-23T17:05:45.475Z,4.95
2019-05-23T17:08:32.232Z,4.90
2019-05-23T17:11:15.240Z,5.17
2019-05-23T17:13:48.748Z,4.97
2019-05-23T17:16:27.491Z,5.42
2019-05-23T17:19:00.893Z,5.25
2019-05-23T17:21:40.465Z,6.22
2019-05-23T17:24:20.611Z,5.85
2019-05-23T17:27:05.400Z,11.18
2019-05-23T17:29:36.670Z,5.42
2019-05-23T17:32:10.101Z,6.62
2019-05-23T17:34:49.682Z,7.10
2019-05-23T17:37:22.990Z,5.97
2019-05-23T17:39:54.438Z,5.28
2019-05-23T17:42:25.798Z,6.50
2019-05-23T17:44:57.283Z,6.17
2019-05-23T17:47:29.877Z,6.62
2019-05-23T17:50:02.848Z,6.22
2019-05-23T17:52:34.927Z,6.75
2019-05-23T17:55:09.368Z,6.15
2019-05-23T17:57:40.999Z,6.42
2019-05-23T18:00:14.328Z,8.40
2019-05-23T18:02:46.361Z,6.53
2019-05-23T18:05:18.326Z,6.97
2019-05-23T18:07:49.797Z,6.95
2019-05-23T18:10:21.500Z,8.20
2019-05-23T18:12:53.385Z,8.28
2019-05-23T18:15:25.580Z,9.45
2019-05-23T18:18:02.851Z,9.43
2019-05-23T18:20:35.094Z,9.35
2019-05-23T18:23:06.974Z,10.30
2019-05-23T18:25:38.834Z,8.10
2019-05-23T18:28:12.372Z,11.12
2019-05-23T18:30:52.164Z,11.28
2019-05-23T18:33:24.438Z,11.50
2019-05-23T18:35:56.340Z,11.88
2019-05-23T18:38:27.807Z,12.82
2019-05-23T18:41:04.378Z,8.75
2019-05-23T18:43:33.372Z,7.65
2019-05-23T18:46:10.030Z,7.53
2019-05-23T18:48:42.585Z,7.58
2019-05-23T18:51:14.871Z,7.67
2019-05-23T18:53:48.691Z,7.62
2019-05-23T18:56:32.788Z,7.53
2019-05-23T18:59:05.966Z,12.45
2019-05-23T19:01:46.912Z,8.63
2019-05-23T19:04:18.723Z,8.35
2019-05-23T19:06:51.420Z,7.45
2019-05-23T19:09:22.967Z,7.85
2019-05-23T19:11:54.401Z,7.58
2019-05-23T19:14:25.916Z,8.88
2019-05-23T19:16:58.978Z,8.58
2019-05-23T19:19:30.252Z,9.00
2019-05-23T19:22:01.796Z,7.80
2019-05-23T19:24:34.533Z,7.78
2019-05-23T19:27:06.087Z,7.45
2019-05-23T19:29:37.930Z,7.78
2019-05-23T19:32:09.946Z,7.17
2019-05-23T19:34:41.323Z,8.20
2019-05-23T19:37:12.917Z,7.00
2019-05-23T19:39:44.347Z,6.62
2019-05-23T19:42:16.304Z,7.03
2019-05-23T19:44:47.739Z,7.12
2019-05-23T19:47:19.217Z,6.62
2019-05-23T19:49:50.738Z,6.12
2019-05-23T19:52:22.312Z,6.70
2019-05-23T19:54:53.828Z,6.37
2019-05-23T19:57:26.201Z,6.00
2019-05-23T19:59:57.612Z,6.62
2019-05-23T20:02:37.127Z,7.30
2019-05-23T20:05:21.229Z,7.60
2019-05-23T20:07:53.409Z,7.20
2019-05-23T20:10:26.812Z,7.12
2019-05-23T20:12:58.327Z,7.00
2019-05-23T20:15:30.889Z,8.33
2019-05-23T20:18:08.593Z,7.45
2019-05-23T20:20:40.400Z,7.42
2019-05-23T20:23:15.848Z,7.45
2019-05-23T20:25:49.024Z,7.20
2019-05-23T20:28:22.173Z,6.83
2019-05-23T20:30:54.913Z,7.12
2019-05-23T20:33:34.662Z,7.12
2019-05-23T20:36:11.727Z,7.25
2019-05-23T20:38:41.212Z,8.03
2019-05-23T20:41:12.679Z,8.68
2019-05-23T20:43:44.124Z,9.35
2019-05-23T20:46:15.495Z,8.98
2019-05-23T20:48:47.077Z,8.03
2019-05-23T20:51:18.595Z,7.40
2019-05-23T20:53:50.193Z,7.30
2019-05-23T20:56:24.575Z,7.78
2019-05-23T20:58:55.971Z,7.75
2019-05-23T21:01:29.199Z,7.28
2019-05-23T21:04:00.705Z,7.85
2019-05-23T21:06:31.990Z,7.78
2019-05-23T21:09:04.788Z,8.03
2019-05-23T21:11:36.207Z,8.50
2019-05-23T21:14:07.857Z,8.15
2019-05-23T21:16:47.803Z,8.45
2019-05-23T21:19:19.242Z,8.50
2019-05-23T21:21:50.625Z,7.65
2019-05-23T21:24:22.095Z,8.00
2019-05-23T21:26:53.465Z,7.45
2019-05-23T21:29:24.827Z,7.78
2019-05-23T21:31:56.237Z,8.38
2019-05-23T21:34:27.639Z,8.30
2019-05-23T21:36:58.977Z,8.88
2019-05-23T21:39:31.379Z,9.23
2019-05-23T21:42:04.500Z,7.92
2019-05-23T21:44:35.770Z,8.80
2019-05-23T21:47:07.481Z,8.73
2019-05-23T21:49:38.837Z,8.50
2019-05-23T21:52:10.350Z,9.30
2019-05-23T21:54:41.739Z,10.95
2019-05-23T21:57:16.112Z,9.88
2019-05-23T21:59:46.002Z,9.70
2019-05-23T22:02:20.448Z,9.18
2019-05-23T22:05:07.586Z,9.08
2019-05-23T22:07:39.043Z,9.58
2019-05-23T22:10:10.792Z,9.60
2019-05-23T22:12:42.255Z,8.90
2019-05-23T22:15:18.319Z,9.23
2019-05-23T22:17:50.633Z,9.43
2019-05-23T22:20:22.084Z,8.35
2019-05-23T22:22:53.462Z,9.03
2019-05-23T22:25:33.230Z,8.70
2019-05-23T22:28:04.911Z,8.08
2019-05-23T22:30:36.379Z,8.48
2019-05-23T22:33:08.348Z,8.55
2019-05-23T22:35:39.621Z,8.33
2019-05-23T22:38:11.468Z,8.30
2019-05-23T22:40:43.018Z,8.45
2019-05-23T22:43:21.051Z,8.95
2019-05-23T22:45:47.519Z,8.50
2019-05-23T22:48:19.058Z,8.48
2019-05-23T22:50:50.342Z,9.58
2019-05-23T22:53:21.724Z,9.50
2019-05-23T22:55:53.057Z,8.03
2019-05-23T22:58:24.633Z,8.48
2019-05-23T23:00:56.051Z,8.63
2019-05-23T23:03:27.586Z,9.58
2019-05-23T23:05:59.068Z,8.20
2019-05-23T23:08:32.330Z,8.85
2019-05-23T23:11:03.587Z,8.85
2019-05-23T23:13:38.583Z,8.08
2019-05-23T23:16:08.930Z,9.75
2019-05-23T23:18:40.314Z,9.70
2019-05-23T23:21:11.691Z,9.78
2019-05-23T23:23:43.139Z,8.35
2019-05-23T23:26:14.432Z,9.28
2019-05-23T23:28:45.959Z,9.80
2019-05-23T23:31:17.725Z,9.53
2019-05-23T23:33:49.027Z,10.23
2019-05-23T23:36:20.663Z,9.58
2019-05-23T23:38:53.592Z,9.38
2019-05-23T23:41:24.957Z,9.78
2019-05-23T23:43:59.717Z,9.40
2019-05-23T23:46:47.239Z,9.38
2019-05-23T23:49:36.315Z,9.48
2019-05-23T23:52:25.553Z,9.90
2019-05-23T23:55:14.712Z,9.88
2019-05-23T23:58:00.420Z,9.25
